Time;durP1;ratioP1;P1;durP2;ratioP2;P2;SDS_P1;SDS_P2;PMS_P1;PMS_P2;Temp;Humidity;BMP_temperature;BMP_pressure;BME280_temperature;BME280_humidity;BME280_pressure;Samples;Min_cycle;Max_cycle;Signal;HPM_P1;HPM_P2
2021/12/05 00:22:17;;;;;;;9.68;7.28;;;2.60;99.90;;;;;;5095361;27;20544;-65
2021/12/05 00:24:48;;;;;;;9.88;7.45;;;2.60;99.90;;;;;;5095621;28;20213;-66
2021/12/05 00:27:18;;;;;;;10.65;7.82;;;2.60;99.90;;;;;;5094790;28;20632;-67
2021/12/05 00:29:56;;;;;;;9.85;7.70;;;2.60;99.90;;;;;;5095785;28;20227;-68
2021/12/05 00:32:32;;;;;;;9.05;7.60;;;2.60;99.90;;;;;;5095587;28;20391;-69
2021/12/05 00:43:56;;;;;;;9.25;7.00;;;2.70;99.90;;;;;;5088237;28;20467;-67
2021/12/05 00:58:15;;;;;;;8.88;7.50;;;2.80;99.90;;;;;;5088076;28;20208;-69
2021/12/05 01:09:28;;;;;;;9.68;7.35;;;2.70;99.90;;;;;;5087623;28;20215;-67
2021/12/05 01:12:12;;;;;;;9.93;7.40;;;2.70;99.90;;;;;;5094905;28;20195;-68
2021/12/05 01:14:53;;;;;;;11.70;8.07;;;2.70;99.90;;;;;;5094558;28;20286;-68
2021/12/05 01:17:26;;;;;;;9.30;7.13;;;2.60;99.90;;;;;;5094608;28;20671;-69
2021/12/05 01:19:55;;;;;;;10.25;7.88;;;2.60;99.90;;;;;;5094715;28;20303;-69
2021/12/05 01:22:23;;;;;;;10.07;7.85;;;2.60;99.90;;;;;;5094195;28;20239;-68
2021/12/05 01:25:00;;;;;;;9.50;7.30;;;2.60;99.90;;;;;;5094148;28;20196;-68
2021/12/05 01:27:39;;;;;;;10.88;8.13;;;2.60;99.90;;;;;;5094400;28;20211;-67
2021/12/05 01:30:13;;;;;;;9.70;7.65;;;2.60;99.90;;;;;;5094738;28;20247;-68
2021/12/05 01:32:54;;;;;;;9.35;7.45;;;2.60;99.90;;;;;;5085748;28;20667;-68
2021/12/05 01:35:35;;;;;;;9.52;7.63;;;2.60;99.90;;;;;;5086551;28;20211;-67
2021/12/05 01:38:10;;;;;;;8.50;7.32;;;2.60;99.90;;;;;;5082023;28;20277;-67
2021/12/05 01:49:26;;;;;;;8.40;6.70;;;2.60;99.90;;;;;;5081901;28;20220;-67
2021/12/05 01:52:27;;;;;;;7.90;6.53;;;2.60;99.90;;;;;;5081949;28;20200;-67
2021/12/05 01:55:16;;;;;;;8.90;6.53;;;2.60;99.90;;;;;;5082002;28;20299;-68
2021/12/05 01:57:55;;;;;;;7.03;6.32;;;2.50;99.90;;;;;;5081679;28;20239;-68
2021/12/05 02:00:59;;;;;;;10.35;6.88;;;2.60;99.90;;;;;;5081395;28;20224;-70
2021/12/05 02:09:20;;;;;;;8.90;7.22;;;2.60;99.90;;;;;;5081093;28;20228;-68
2021/12/05 02:31:45;;;;;;;9.70;7.68;;;2.60;99.90;;;;;;5079814;28;20644;-69
2021/12/05 02:34:28;;;;;;;8.63;7.00;;;2.70;99.90;;;;;;5079655;28;20204;-70
2021/12/05 02:37:12;;;;;;;11.98;8.15;;;2.70;99.90;;;;;;5079613;28;20184;-70
2021/12/05 02:39:48;;;;;;;9.77;7.18;;;2.70;99.90;;;;;;5079054;28;20224;-70
2021/12/05 02:42:25;;;;;;;8.80;6.78;;;2.70;99.90;;;;;;5079358;28;20220;-70
2021/12/05 02:44:53;;;;;;;11.35;7.53;;;2.70;99.90;;;;;;5078498;28;20204;-70
2021/12/05 02:47:25;;;;;;;12.48;7.90;;;2.70;99.90;;;;;;5079274;28;20236;-70
2021/12/05 02:49:57;;;;;;;10.50;8.18;;;2.80;99.90;;;;;;5078999;28;20384;-69
2021/12/05 02:52:30;;;;;;;11.05;9.02;;;2.80;99.90;;;;;;5078842;28;20204;-70
2021/12/05 02:55:04;;;;;;;10.07;8.05;;;2.90;99.90;;;;;;5079341;28;20207;-68
2021/12/05 02:57:49;;;;;;;10.27;7.47;;;2.90;99.90;;;;;;5079134;28;20658;-69
2021/12/05 03:00:32;;;;;;;9.60;7.90;;;2.90;99.90;;;;;;5079210;28;20512;-69
2021/12/05 03:03:01;;;;;;;10.02;7.95;;;2.90;99.90;;;;;;5078981;28;20607;-70
2021/12/05 03:05:29;;;;;;;9.75;7.80;;;2.90;99.90;;;;;;5079133;28;20600;-68
2021/12/05 03:08:01;;;;;;;11.00;8.00;;;2.80;99.90;;;;;;5078806;28;20207;-70
2021/12/05 03:10:30;;;;;;;10.75;8.10;;;2.70;99.90;;;;;;5079018;28;20690;-69
2021/12/05 03:12:58;;;;;;;12.07;8.88;;;2.80;99.90;;;;;;5087191;28;20267;-69
2021/12/05 03:15:27;;;;;;;11.60;9.13;;;2.80;99.90;;;;;;5097599;28;20208;-68
2021/12/05 03:17:55;;;;;;;12.48;8.73;;;2.90;99.90;;;;;;5080429;28;20295;-67
2021/12/05 03:20:23;;;;;;;11.15;8.48;;;2.90;99.90;;;;;;5078963;28;20228;-68
2021/12/05 03:22:52;;;;;;;13.35;8.95;;;2.90;99.90;;;;;;5078893;28;20683;-67
2021/12/05 03:25:23;;;;;;;11.50;8.23;;;2.90;99.90;;;;;;5079025;28;20240;-68
2021/12/05 03:27:51;;;;;;;11.82;8.82;;;2.90;99.90;;;;;;5079641;28;20231;-67
2021/12/05 03:30:24;;;;;;;11.32;9.07;;;2.90;99.90;;;;;;5083478;28;20224;-68
2021/12/05 03:32:54;;;;;;;12.20;9.38;;;2.90;99.90;;;;;;5083093;28;20206;-67
2021/12/05 03:35:26;;;;;;;12.98;9.32;;;2.90;99.90;;;;;;5082291;28;20211;-69
2021/12/05 03:37:55;;;;;;;13.60;9.50;;;2.80;99.90;;;;;;5078597;28;20427;-69
2021/12/05 03:40:26;;;;;;;12.30;10.25;;;2.80;99.90;;;;;;5078758;28;20489;-69
2021/12/05 03:42:56;;;;;;;11.00;8.68;;;2.80;99.90;;;;;;5078083;28;20212;-69
2021/12/05 03:45:28;;;;;;;14.60;9.75;;;2.90;99.90;;;;;;5078132;28;20192;-69
2021/12/05 03:47:56;;;;;;;11.98;8.80;;;2.90;99.90;;;;;;5078099;28;20208;-70
2021/12/05 03:50:26;;;;;;;14.40;9.45;;;2.90;99.90;;;;;;5078108;28;20681;-69
2021/12/05 03:52:54;;;;;;;13.77;9.40;;;2.90;99.90;;;;;;5078025;28;20291;-70
2021/12/05 03:55:24;;;;;;;13.20;10.13;;;2.90;99.90;;;;;;5078387;28;20201;-69
2021/12/05 03:57:52;;;;;;;16.42;11.23;;;2.90;99.90;;;;;;5078354;28;20678;-70
2021/12/05 04:00:23;;;;;;;17.55;10.52;;;2.90;99.90;;;;;;5078050;28;20235;-69
2021/12/05 04:02:53;;;;;;;15.30;9.15;;;2.80;99.90;;;;;;5078941;28;20255;-70
2021/12/05 04:05:21;;;;;;;16.30;10.52;;;2.80;99.90;;;;;;5079287;28;20200;-70
2021/12/05 04:07:49;;;;;;;14.85;11.55;;;2.80;99.90;;;;;;5078634;28;20658;-70
2021/12/05 04:10:18;;;;;;;14.90;10.90;;;2.90;99.90;;;;;;5079515;28;20303;-65
2021/12/05 04:12:49;;;;;;;16.95;10.65;;;2.90;99.90;;;;;;5078477;28;20219;-69
2021/12/05 04:15:17;;;;;;;14.45;10.13;;;2.90;99.90;;;;;;5078821;28;20783;-69
2021/12/05 04:17:45;;;;;;;14.57;10.38;;;2.90;99.90;;;;;;5078801;28;20243;-69
2021/12/05 04:20:16;;;;;;;16.70;10.65;;;3.00;99.90;;;;;;5079267;28;20745;-69
2021/12/05 04:22:45;;;;;;;15.55;10.20;;;3.00;99.90;;;;;;5086818;28;20227;-69
2021/12/05 04:25:14;;;;;;;12.30;10.32;;;3.00;99.90;;;;;;5079811;28;20272;-68
2021/12/05 04:27:44;;;;;;;13.82;9.57;;;3.00;99.90;;;;;;5079555;28;20748;-68
2021/12/05 04:30:16;;;;;;;18.02;11.60;;;3.00;99.90;;;;;;5079540;28;20216;-68
2021/12/05 04:32:44;;;;;;;15.88;10.38;;;3.00;99.90;;;;;;5080056;28;20481;-69
2021/12/05 04:35:12;;;;;;;14.77;10.85;;;3.00;99.90;;;;;;5080558;28;20201;-67
2021/12/05 04:37:40;;;;;;;18.17;12.15;;;2.90;99.90;;;;;;5080148;28;20683;-69
2021/12/05 04:40:11;;;;;;;18.88;11.77;;;2.90;99.90;;;;;;5079799;28;20228;-70
2021/12/05 04:42:39;;;;;;;14.70;10.73;;;3.00;99.90;;;;;;5079373;28;20222;-69
2021/12/05 04:45:13;;;;;;;16.40;11.02;;;3.00;99.90;;;;;;5080613;28;20201;-69
2021/12/05 04:47:44;;;;;;;16.13;10.40;;;2.90;99.90;;;;;;5083424;28;20204;-68
2021/12/05 04:50:13;;;;;;;18.50;11.88;;;2.90;99.90;;;;;;5089213;28;20925;-70
2021/12/05 04:52:41;;;;;;;17.83;11.60;;;3.00;99.90;;;;;;5079310;28;20219;-68
2021/12/05 04:55:11;;;;;;;20.88;12.00;;;3.00;99.90;;;;;;5079098;28;20204;-70
2021/12/05 04:57:40;;;;;;;19.80;11.02;;;3.00;99.90;;;;;;5078651;28;20219;-67
2021/12/05 05:00:14;;;;;;;19.20;13.10;;;2.90;99.90;;;;;;5079118;28;20582;-69
2021/12/05 05:02:43;;;;;;;20.85;12.18;;;2.90;99.90;;;;;;5078405;28;20216;-69
2021/12/05 05:05:13;;;;;;;21.30;13.23;;;2.90;99.90;;;;;;5078556;28;20201;-68
2021/12/05 05:07:43;;;;;;;18.95;11.80;;;2.90;99.90;;;;;;5080463;28;20200;-68
2021/12/05 05:10:14;;;;;;;18.75;12.90;;;2.90;99.90;;;;;;5081873;28;20299;-67
2021/12/05 05:12:42;;;;;;;22.77;13.77;;;2.90;99.90;;;;;;5081968;28;20296;-68
2021/12/05 05:15:13;;;;;;;21.67;12.52;;;3.00;99.90;;;;;;5082223;28;20238;-69
2021/12/05 05:17:43;;;;;;;20.08;11.82;;;3.00;99.90;;;;;;5081619;28;20211;-67
2021/12/05 05:20:21;;;;;;;22.95;12.80;;;2.90;99.90;;;;;;5081602;28;20228;-67
2021/12/05 05:23:03;;;;;;;19.10;11.30;;;2.90;99.90;;;;;;5081342;28;20216;-68
2021/12/05 05:28:44;;;;;;;20.48;12.00;;;2.80;99.90;;;;;;5063693;28;20240;-68
2021/12/05 05:39:42;;;;;;;19.10;12.07;;;2.90;99.90;;;;;;5081249;28;20220;-69
2021/12/05 05:45:13;;;;;;;17.83;11.80;;;2.80;99.90;;;;;;5086576;28;20394;-69
2021/12/05 05:47:52;;;;;;;21.90;12.15;;;2.90;99.90;;;;;;5096279;28;20271;-67
2021/12/05 05:50:23;;;;;;;20.33;11.60;;;2.90;99.90;;;;;;5081247;28;20307;-68
2021/12/05 05:52:51;;;;;;;22.85;12.48;;;2.80;99.90;;;;;;5080905;28;20196;-68
2021/12/05 05:55:19;;;;;;;19.00;12.15;;;2.90;99.90;;;;;;5081445;28;20317;-69
2021/12/05 05:57:57;;;;;;;22.60;13.25;;;2.90;99.90;;;;;;5081109;28;20286;-70
2021/12/05 06:00:31;;;;;;;21.55;12.20;;;2.90;99.90;;;;;;5080582;28;20468;-69
2021/12/05 06:05:51;;;;;;;20.33;11.65;;;2.90;99.90;;;;;;5080824;28;20200;-69
2021/12/05 06:08:21;;;;;;;23.83;13.88;;;2.90;99.90;;;;;;5080931;28;20376;-70
2021/12/05 06:10:49;;;;;;;22.63;12.80;;;2.80;99.90;;;;;;5081009;28;20302;-68
2021/12/05 06:13:19;;;;;;;17.90;11.27;;;2.90;99.90;;;;;;5080473;28;20443;-68
2021/12/05 06:15:47;;;;;;;24.00;12.88;;;2.90;99.90;;;;;;5080190;28;20659;-68
2021/12/05 06:18:15;;;;;;;21.48;13.77;;;2.90;99.90;;;;;;5080166;28;20583;-69
2021/12/05 06:20:44;;;;;;;20.23;13.02;;;2.80;99.90;;;;;;5080634;28;20238;-71
2021/12/05 06:23:14;;;;;;;21.15;13.02;;;2.80;99.90;;;;;;5080088;28;20421;-71
2021/12/05 06:25:48;;;;;;;22.15;12.15;;;2.90;99.90;;;;;;5080475;28;20691;-71
2021/12/05 06:28:18;;;;;;;20.17;12.05;;;2.90;99.90;;;;;;5080556;28;20208;-70
2021/12/05 06:30:55;;;;;;;18.63;11.82;;;2.90;99.90;;;;;;5080623;28;20312;-73
2021/12/05 06:39:19;;;;;;;17.38;11.07;;;2.90;99.90;;;;;;5082807;28;20315;-68
2021/12/05 06:41:59;;;;;;;22.58;12.23;;;2.80;99.90;;;;;;5081395;28;20200;-69
2021/12/05 06:47:14;;;;;;;20.67;14.27;;;2.80;99.90;;;;;;5079798;28;20703;-68
2021/12/05 06:49:44;;;;;;;20.58;13.55;;;2.80;99.90;;;;;;5080778;28;20726;-70
2021/12/05 06:52:32;;;;;;;18.90;11.50;;;2.80;99.90;;;;;;5078707;28;20683;-70
2021/12/05 06:55:01;;;;;;;19.73;12.60;;;2.90;99.90;;;;;;5079403;28;20679;-70
2021/12/05 06:57:29;;;;;;;18.42;13.05;;;2.90;99.90;;;;;;5079109;28;20283;-68
2021/12/05 06:59:57;;;;;;;19.27;11.95;;;2.90;99.90;;;;;;5079004;28;20480;-69
2021/12/05 07:02:25;;;;;;;20.95;13.93;;;2.90;99.90;;;;;;5079282;28;20204;-68
2021/12/05 07:07:38;;;;;;;21.10;12.35;;;2.90;99.90;;;;;;5055867;28;20199;-70
2021/12/05 07:10:09;;;;;;;17.25;11.55;;;2.90;99.90;;;;;;5085255;28;20224;-68
2021/12/05 07:13:30;;;;;;;22.33;12.45;;;2.90;99.90;;;;;;5088623;28;20224;-69
2021/12/05 07:15:59;;;;;;;16.30;11.75;;;2.90;99.90;;;;;;5092229;28;20200;-68
2021/12/05 07:21:25;;;;;;;17.30;11.15;;;2.90;99.90;;;;;;5080981;28;20205;-67
2021/12/05 07:24:07;;;;;;;16.92;12.85;;;2.90;99.90;;;;;;5079140;28;20889;-68
2021/12/05 07:26:51;;;;;;;20.90;11.98;;;2.90;99.90;;;;;;5059829;28;20211;-68
2021/12/05 07:40:28;;;;;;;22.30;14.75;;;2.90;99.90;;;;;;5078751;28;20235;-67
2021/12/05 07:42:59;;;;;;;20.98;14.02;;;2.90;99.90;;;;;;5078601;28;20204;-69
2021/12/05 07:45:33;;;;;;;22.45;13.32;;;2.90;99.90;;;;;;5078031;28;20223;-67
2021/12/05 07:48:09;;;;;;;21.42;13.27;;;2.90;99.90;;;;;;5078409;28;20264;-68
2021/12/05 07:50:45;;;;;;;21.35;12.90;;;2.90;99.90;;;;;;5077976;28;20207;-69
2021/12/05 07:53:20;;;;;;;21.60;13.20;;;3.00;99.90;;;;;;5078077;28;20257;-68
2021/12/05 07:55:52;;;;;;;18.48;12.63;;;2.90;99.90;;;;;;5078121;28;20214;-69
2021/12/05 07:58:48;;;;;;;22.15;13.70;;;3.00;99.90;;;;;;5077539;28;20299;-68
2021/12/05 08:14:21;;;;;;;22.08;14.68;;;3.00;99.90;;;;;;5077755;28;20266;-69
2021/12/05 08:15:17;;;;;;;22.05;14.70;;;3.00;99.90;;;;;;5078010;28;20200;-69
2021/12/05 08:17:52;;;;;;;22.58;13.60;;;3.00;99.90;;;;;;5092360;28;20384;-69
2021/12/05 08:20:23;;;;;;;22.27;13.77;;;3.00;99.90;;;;;;5087332;28;20236;-69
2021/12/05 08:22:52;;;;;;;22.63;13.77;;;3.00;99.90;;;;;;5078193;28;20717;-68
2021/12/05 08:25:25;;;;;;;22.23;14.25;;;3.10;99.90;;;;;;5078196;28;20473;-68
2021/12/05 08:27:59;;;;;;;23.33;13.90;;;3.20;99.90;;;;;;5079061;28;20206;-69
2021/12/05 08:30:32;;;;;;;22.10;14.07;;;3.30;99.90;;;;;;5079439;28;20586;-68
2021/12/05 08:36:18;;;;;;;22.08;13.27;;;3.20;99.90;;;;;;5068452;28;20222;-68
2021/12/05 08:39:21;;;;;;;22.00;12.60;;;3.10;99.90;;;;;;5077435;28;20231;-69
2021/12/05 08:42:22;;;;;;;21.00;13.45;;;3.20;99.90;;;;;;5078120;28;20210;-67
2021/12/05 09:21:32;;;;;;;17.38;12.20;;;3.20;99.90;;;;;;5080569;28;20356;-66
2021/12/05 09:24:17;;;;;;;16.42;12.05;;;3.20;99.90;;;;;;5080708;28;20214;-71
2021/12/05 09:27:01;;;;;;;20.67;13.05;;;3.20;99.90;;;;;;5080080;28;20295;-71
2021/12/05 10:03:36;;;;;;;19.88;12.32;;;3.00;99.90;;;;;;5083661;28;20295;-71
2021/12/05 10:08:58;;;;;;;18.70;13.80;;;3.10;99.90;;;;;;5081870;28;20251;-73
2021/12/05 10:11:36;;;;;;;20.80;13.30;;;3.10;99.90;;;;;;5084859;28;20234;-72
2021/12/05 10:14:32;;;;;;;19.83;12.20;;;3.10;99.90;;;;;;5086201;28;20200;-72
2021/12/05 10:17:32;;;;;;;18.77;12.68;;;3.10;99.90;;;;;;5085899;28;20205;-72
2021/12/05 10:20:21;;;;;;;20.35;13.00;;;3.20;99.90;;;;;;5085313;28;20220;-71
2021/12/05 10:26:30;;;;;;;20.40;12.80;;;3.20;99.90;;;;;;5037238;28;20486;-70
2021/12/05 10:35:04;;;;;;;20.88;14.93;;;3.30;99.90;;;;;;5066601;28;20188;-69
2021/12/05 10:37:46;;;;;;;18.55;11.82;;;3.30;99.90;;;;;;5080897;28;20364;-68
2021/12/05 10:40:20;;;;;;;19.98;13.25;;;3.30;99.90;;;;;;5079418;28;20213;-73
2021/12/05 10:42:50;;;;;;;23.40;14.32;;;3.40;99.90;;;;;;5078831;28;20476;-69
2021/12/05 10:45:32;;;;;;;18.15;13.23;;;3.40;99.90;;;;;;5080486;28;20235;-69
2021/12/05 10:48:03;;;;;;;19.85;14.35;;;3.40;99.90;;;;;;5080030;28;20316;-69
2021/12/05 10:50:37;;;;;;;23.42;14.00;;;3.50;99.90;;;;;;5089952;28;20268;-71
2021/12/05 10:53:23;;;;;;;19.17;13.07;;;3.50;99.90;;;;;;5098869;28;20411;-70
2021/12/05 10:56:07;;;;;;;23.23;14.38;;;3.60;99.90;;;;;;5096492;28;20296;-71
2021/12/05 10:58:40;;;;;;;20.83;14.50;;;3.60;99.90;;;;;;5082818;28;20216;-71
2021/12/05 11:01:14;;;;;;;20.80;14.30;;;3.70;99.90;;;;;;5081470;28;20204;-71
2021/12/05 11:03:44;;;;;;;22.13;14.23;;;3.70;99.90;;;;;;5079986;28;20302;-71
2021/12/05 11:06:24;;;;;;;23.00;15.13;;;3.80;99.90;;;;;;5079261;28;20315;-67
2021/12/05 11:08:59;;;;;;;20.92;14.43;;;3.90;99.90;;;;;;5079793;28;20228;-71
2021/12/05 11:11:28;;;;;;;20.60;16.10;;;4.00;99.90;;;;;;5079743;28;20295;-70
2021/12/05 11:13:58;;;;;;;23.25;15.30;;;4.10;99.90;;;;;;5079601;28;20473;-70
2021/12/05 11:16:38;;;;;;;22.08;14.60;;;4.10;99.90;;;;;;5079056;28;20441;-69
2021/12/05 11:19:28;;;;;;;22.90;14.73;;;4.20;99.90;;;;;;5079202;28;20519;-73
2021/12/05 11:22:16;;;;;;;26.15;16.58;;;4.20;99.90;;;;;;5078518;28;20769;-72
2021/12/05 11:24:48;;;;;;;20.45;14.57;;;4.20;99.90;;;;;;5078947;28;20292;-72
2021/12/05 11:27:20;;;;;;;22.05;15.15;;;4.30;99.90;;;;;;5078700;28;20283;-71
2021/12/05 11:30:09;;;;;;;22.23;16.02;;;4.30;99.90;;;;;;5079249;28;20639;-71
2021/12/05 11:32:42;;;;;;;23.13;14.68;;;4.30;99.90;;;;;;5078657;28;20236;-72
2021/12/05 11:35:18;;;;;;;23.17;15.52;;;4.30;99.90;;;;;;5079092;28;20189;-72
2021/12/05 11:37:56;;;;;;;22.20;16.00;;;4.30;99.90;;;;;;5079032;28;20200;-72
2021/12/05 11:40:26;;;;;;;23.95;16.63;;;4.30;99.90;;;;;;5080340;28;20344;-72
2021/12/05 11:42:59;;;;;;;22.10;15.38;;;4.30;99.90;;;;;;5081446;28;20201;-70
2021/12/05 11:45:28;;;;;;;22.23;15.18;;;4.30;99.90;;;;;;5079487;28;20213;-69
2021/12/05 11:47:58;;;;;;;25.05;17.05;;;4.30;99.90;;;;;;5078959;28;20596;-71
2021/12/05 11:50:34;;;;;;;24.58;15.85;;;4.30;99.90;;;;;;5079073;28;20221;-70
2021/12/05 11:53:03;;;;;;;24.63;16.13;;;4.30;99.90;;;;;;5078357;28;20203;-69
2021/12/05 11:55:34;;;;;;;23.60;15.10;;;4.20;99.90;;;;;;5079339;28;20484;-70
2021/12/05 11:58:02;;;;;;;25.25;16.88;;;4.20;99.90;;;;;;5079094;28;20221;-71
2021/12/05 12:00:31;;;;;;;22.08;15.57;;;4.20;99.90;;;;;;5078785;28;20619;-69
2021/12/05 12:03:01;;;;;;;26.50;18.20;;;4.20;99.90;;;;;;5076751;28;20772;-69
2021/12/05 12:05:34;;;;;;;27.10;17.85;;;4.20;99.90;;;;;;5079304;28;20208;-69
2021/12/05 12:08:07;;;;;;;23.88;15.98;;;4.10;99.90;;;;;;5080936;28;20196;-69
2021/12/05 12:10:39;;;;;;;26.35;17.63;;;4.10;99.90;;;;;;5098692;28;20596;-69
2021/12/05 12:13:10;;;;;;;22.00;15.93;;;4.00;99.90;;;;;;5088797;28;20231;-69
2021/12/05 12:15:39;;;;;;;26.88;17.98;;;4.00;99.90;;;;;;5078300;28;20511;-69
2021/12/05 12:18:16;;;;;;;27.30;17.15;;;3.90;99.90;;;;;;5077981;28;20206;-69
2021/12/05 12:20:47;;;;;;;24.77;17.25;;;4.00;99.90;;;;;;5078649;28;20234;-69
2021/12/05 12:23:17;;;;;;;23.60;17.63;;;4.00;99.90;;;;;;5078448;28;20313;-70
2021/12/05 12:25:49;;;;;;;29.40;18.08;;;4.00;99.90;;;;;;5078779;28;20208;-70
2021/12/05 12:28:18;;;;;;;24.23;16.52;;;3.90;99.90;;;;;;5078955;28;20200;-71
2021/12/05 12:30:52;;;;;;;29.95;18.98;;;4.00;99.90;;;;;;5078782;28;20202;-73
2021/12/05 12:33:24;;;;;;;25.70;17.02;;;4.00;99.90;;;;;;5078977;28;20196;-66
2021/12/05 12:35:52;;;;;;;28.23;17.50;;;4.00;99.90;;;;;;5078885;28;20250;-66
2021/12/05 12:38:22;;;;;;;23.02;15.52;;;4.00;99.90;;;;;;5078437;28;20200;-67
2021/12/05 12:40:52;;;;;;;31.10;19.35;;;4.00;99.90;;;;;;5078112;28;20196;-73
2021/12/05 12:43:43;;;;;;;27.85;18.38;;;4.00;99.90;;;;;;5078352;28;20234;-67
2021/12/05 12:46:26;;;;;;;27.70;18.17;;;4.00;99.90;;;;;;5078527;28;20216;-65
2021/12/05 12:48:59;;;;;;;28.58;18.83;;;4.00;99.90;;;;;;5078887;28;20220;-66
2021/12/05 12:51:32;;;;;;;27.45;17.23;;;4.00;99.90;;;;;;5079136;28;20268;-68
2021/12/05 12:54:03;;;;;;;26.75;18.02;;;4.00;99.90;;;;;;5081716;28;20304;-70
2021/12/05 12:56:32;;;;;;;28.08;18.30;;;4.00;99.90;;;;;;5079018;28;20231;-69
2021/12/05 12:59:06;;;;;;;24.85;17.35;;;4.10;99.90;;;;;;5079452;28;20906;-69
2021/12/05 13:01:50;;;;;;;26.88;18.88;;;4.10;99.90;;;;;;5078640;28;20738;-69
2021/12/05 13:04:49;;;;;;;29.27;17.95;;;4.00;99.90;;;;;;5079340;28;20236;-69
2021/12/05 13:10:23;;;;;;;31.65;20.25;;;4.00;99.90;;;;;;5071490;28;20301;-70
2021/12/05 13:12:56;;;;;;;29.95;18.77;;;4.00;99.90;;;;;;5068156;28;20193;-69
2021/12/05 13:15:33;;;;;;;30.50;19.27;;;4.00;99.90;;;;;;5063659;28;20205;-68
2021/12/05 13:18:05;;;;;;;29.85;18.65;;;4.00;99.90;;;;;;5061311;28;20851;-69
2021/12/05 13:20:52;;;;;;;29.15;18.48;;;3.90;99.90;;;;;;5060952;28;20458;-69
2021/12/05 13:23:27;;;;;;;31.10;18.45;;;4.00;99.90;;;;;;5058693;28;20232;-69
2021/12/05 13:26:05;;;;;;;30.27;20.00;;;4.00;99.90;;;;;;5064726;28;20228;-68
2021/12/05 13:28:35;;;;;;;32.03;19.77;;;3.90;99.90;;;;;;5082886;28;20221;-69
2021/12/05 13:31:36;;;;;;;29.10;18.65;;;3.90;99.90;;;;;;5067827;28;20205;-67
2021/12/05 13:34:20;;;;;;;27.15;18.58;;;3.80;99.90;;;;;;5062599;28;20883;-69
2021/12/05 13:36:52;;;;;;;27.42;19.02;;;3.70;99.90;;;;;;5061732;28;20397;-68
2021/12/05 13:39:36;;;;;;;29.58;18.55;;;3.70;99.90;;;;;;5064528;28;20216;-69
2021/12/05 13:42:08;;;;;;;26.95;17.52;;;3.60;99.90;;;;;;5063850;28;20209;-68
2021/12/05 13:45:03;;;;;;;25.13;17.55;;;3.60;99.90;;;;;;5060515;28;20772;-68
2021/12/05 13:47:34;;;;;;;26.20;17.70;;;3.50;99.90;;;;;;5072732;28;20311;-69
2021/12/05 13:50:28;;;;;;;26.55;17.42;;;3.40;99.90;;;;;;5081185;28;20650;-68
2021/12/05 13:53:14;;;;;;;27.15;18.27;;;3.40;99.90;;;;;;5077105;28;20292;-69
2021/12/05 13:55:44;;;;;;;23.83;15.50;;;3.30;99.90;;;;;;5060696;28;20644;-67
2021/12/05 13:58:25;;;;;;;28.00;17.17;;;3.30;99.90;;;;;;5060677;28;20280;-67
2021/12/05 14:00:59;;;;;;;28.20;17.50;;;3.30;99.90;;;;;;5060359;28;20289;-68
2021/12/05 14:03:56;;;;;;;32.70;18.75;;;3.30;99.90;;;;;;5060394;28;20204;-68
2021/12/05 14:06:41;;;;;;;31.60;19.58;;;3.30;99.90;;;;;;5060555;28;20706;-69
2021/12/05 14:09:14;;;;;;;28.15;17.55;;;3.30;99.90;;;;;;5061703;28;20615;-68
2021/12/05 14:11:46;;;;;;;32.05;18.40;;;3.20;99.90;;;;;;5059931;28;20208;-69
2021/12/05 14:14:15;;;;;;;28.73;18.40;;;3.20;99.90;;;;;;5059736;28;20235;-68
2021/12/05 14:16:45;;;;;;;23.73;17.95;;;3.00;99.90;;;;;;5059969;28;20193;-67
2021/12/05 14:19:16;;;;;;;27.73;18.15;;;2.90;99.90;;;;;;5060309;28;20636;-68
2021/12/05 14:21:46;;;;;;;24.48;17.40;;;2.90;99.90;;;;;;5059877;28;20224;-69
2021/12/05 14:24:17;;;;;;;30.42;18.30;;;2.80;99.90;;;;;;5060534;28;20603;-68
2021/12/05 14:26:48;;;;;;;27.85;17.45;;;2.80;99.90;;;;;;5061127;28;20759;-69
2021/12/05 14:29:19;;;;;;;25.83;17.85;;;2.80;99.90;;;;;;5060768;28;20332;-68
2021/12/05 14:31:53;;;;;;;28.90;17.60;;;2.80;99.90;;;;;;5060879;28;20211;-68
2021/12/05 14:34:22;;;;;;;27.85;18.05;;;2.80;99.90;;;;;;5060227;28;20211;-69
2021/12/05 14:36:53;;;;;;;27.27;16.88;;;2.80;99.90;;;;;;5069063;28;20220;-68
2021/12/05 14:39:26;;;;;;;25.10;16.70;;;2.80;99.90;;;;;;5081987;28;20221;-69
2021/12/05 14:41:58;;;;;;;29.67;17.15;;;2.80;99.90;;;;;;5062831;28;20197;-68
2021/12/05 14:44:26;;;;;;;27.38;16.75;;;2.70;99.90;;;;;;5060238;28;20682;-68
2021/12/05 14:47:01;;;;;;;26.10;15.70;;;2.70;99.90;;;;;;5059914;28;20252;-68
2021/12/05 14:49:32;;;;;;;27.45;17.25;;;2.80;99.90;;;;;;5059661;28;20230;-67
2021/12/05 14:52:02;;;;;;;24.90;17.30;;;2.80;99.90;;;;;;5060215;28;20267;-68
2021/12/05 14:54:35;;;;;;;26.30;16.35;;;2.80;99.90;;;;;;5059164;28;20201;-68
2021/12/05 14:57:12;;;;;;;23.33;15.82;;;2.80;99.90;;;;;;5058916;28;20193;-68
2021/12/05 14:59:43;;;;;;;21.40;14.60;;;2.80;99.90;;;;;;5059655;28;20274;-66
2021/12/05 15:02:12;;;;;;;20.70;14.85;;;2.80;99.90;;;;;;5059549;28;20664;-69
2021/12/05 15:04:43;;;;;;;26.05;14.55;;;2.80;99.90;;;;;;5059289;28;20672;-68
2021/12/05 15:07:12;;;;;;;22.05;14.90;;;2.80;99.90;;;;;;5059291;28;20252;-68
2021/12/05 15:09:44;;;;;;;23.83;14.65;;;2.90;99.90;;;;;;5066801;28;20255;-69
2021/12/05 15:12:23;;;;;;;23.58;16.42;;;2.80;99.90;;;;;;5072517;28;20205;-69
2021/12/05 15:14:53;;;;;;;21.45;14.25;;;2.80;99.90;;;;;;5073413;28;20262;-69
2021/12/05 15:17:23;;;;;;;25.92;15.57;;;2.70;99.90;;;;;;5074553;28;20201;-69
2021/12/05 15:19:56;;;;;;;23.40;13.98;;;2.70;99.90;;;;;;5074342;28;20248;-69
2021/12/05 15:22:41;;;;;;;21.42;14.32;;;2.60;99.90;;;;;;5060235;28;20212;-69
2021/12/05 15:25:14;;;;;;;23.95;15.50;;;2.60;99.90;;;;;;5059714;28;20197;-69
2021/12/05 15:27:43;;;;;;;22.33;14.80;;;2.60;99.90;;;;;;5060839;28;20696;-69
2021/12/05 15:30:15;;;;;;;26.58;16.23;;;2.60;99.90;;;;;;5060629;28;20220;-69
2021/12/05 15:32:43;;;;;;;25.70;16.25;;;2.60;99.90;;;;;;5059266;28;20204;-69
2021/12/05 15:35:17;;;;;;;23.55;15.15;;;2.50;99.90;;;;;;5060069;28;20229;-68
2021/12/05 15:37:50;;;;;;;23.45;15.75;;;2.50;99.90;;;;;;5060014;28;20197;-69
2021/12/05 15:40:20;;;;;;;24.02;16.40;;;2.50;99.90;;;;;;5060059;28;20309;-69
2021/12/05 15:42:49;;;;;;;21.55;16.00;;;2.50;99.90;;;;;;5060328;28;20211;-68
2021/12/05 15:45:19;;;;;;;25.80;16.80;;;2.50;99.90;;;;;;5061927;28;20808;-68
2021/12/05 15:47:49;;;;;;;23.77;15.75;;;2.40;99.90;;;;;;5065109;28;20228;-66
2021/12/05 15:50:20;;;;;;;24.92;14.85;;;2.30;99.90;;;;;;5061584;28;20366;-68
2021/12/05 15:52:51;;;;;;;20.55;14.95;;;2.20;99.90;;;;;;5062481;28;20201;-69
2021/12/05 15:55:24;;;;;;;26.45;17.52;;;2.20;99.90;;;;;;5062383;28;20211;-68
2021/12/05 15:57:55;;;;;;;25.55;14.52;;;2.20;99.90;;;;;;5061383;28;20209;-66
2021/12/05 16:00:26;;;;;;;27.95;17.83;;;2.20;99.90;;;;;;5062395;28;20347;-67
2021/12/05 16:02:59;;;;;;;23.10;15.98;;;2.20;99.90;;;;;;5062924;28;20289;-68
2021/12/05 16:05:28;;;;;;;21.85;14.63;;;2.30;99.90;;;;;;5061540;28;20346;-66
2021/12/05 16:08:03;;;;;;;23.08;14.15;;;2.30;99.90;;;;;;5060949;28;20231;-68
2021/12/05 16:10:34;;;;;;;26.60;15.93;;;2.40;99.90;;;;;;5059012;28;20220;-68
2021/12/05 16:13:11;;;;;;;24.55;15.85;;;2.30;99.90;;;;;;5064575;28;20196;-68
2021/12/05 16:15:40;;;;;;;24.13;16.35;;;2.30;99.90;;;;;;5059100;28;20565;-68
2021/12/05 16:18:08;;;;;;;21.17;14.70;;;2.30;99.90;;;;;;5059573;28;20240;-69
2021/12/05 16:20:41;;;;;;;23.90;16.58;;;2.30;99.90;;;;;;5059429;28;20215;-67
2021/12/05 16:23:17;;;;;;;24.05;15.13;;;2.30;99.90;;;;;;5059348;28;20446;-68
2021/12/05 16:25:56;;;;;;;22.55;14.85;;;2.30;99.90;;;;;;5059074;28;20548;-66
2021/12/05 16:28:26;;;;;;;26.35;16.80;;;2.30;99.90;;;;;;5059693;28;20224;-67
2021/12/05 16:31:00;;;;;;;29.83;15.98;;;2.30;99.90;;;;;;5059402;28;20631;-68
2021/12/05 16:33:30;;;;;;;27.88;18.38;;;2.40;99.90;;;;;;5058337;28;20639;-66
2021/12/05 16:35:59;;;;;;;27.92;16.75;;;2.30;99.90;;;;;;5058697;28;20523;-68
2021/12/05 16:38:32;;;;;;;27.65;17.95;;;2.40;99.90;;;;;;5058262;28;20305;-68
2021/12/05 16:41:09;;;;;;;27.02;17.58;;;2.40;99.90;;;;;;5057989;28;20247;-66
2021/12/05 16:43:41;;;;;;;25.55;15.57;;;2.40;99.90;;;;;;5057555;28;20215;-66
2021/12/05 16:46:13;;;;;;;27.95;17.15;;;2.40;99.90;;;;;;5057916;28;20479;-70
2021/12/05 16:48:44;;;;;;;25.25;16.35;;;2.40;99.90;;;;;;5058185;28;20221;-68
2021/12/05 16:51:19;;;;;;;29.25;17.23;;;2.40;99.90;;;;;;5059020;28;20229;-68
2021/12/05 16:53:50;;;;;;;29.80;18.65;;;2.40;99.90;;;;;;5057966;28;20655;-68
2021/12/05 16:59:18;;;;;;;30.10;19.23;;;2.50;99.90;;;;;;5138491;27;20582;-67
2021/12/05 17:01:47;;;;;;;30.55;17.80;;;2.50;99.90;;;;;;5138218;27;20772;-69
2021/12/05 17:04:15;;;;;;;30.42;18.05;;;2.50;99.90;;;;;;5155486;27;20205;-68
2021/12/05 17:06:54;;;;;;;30.90;20.13;;;2.50;99.90;;;;;;5151776;27;20206;-67